sensor_id;sensor_type;location;lat;lon;timestamp;P1;durP1;ratioP1;P2;durP2;ratioP2
80225;SDS011;69538;42.000;21.452;2023-07-24T00:01:39;23.42;;;11.57;;
80225;SDS011;69538;42.000;21.452;2023-07-24T00:04:06;20.70;;;12.23;;
80225;SDS011;69538;42.000;21.452;2023-07-24T00:06:32;21.50;;;12.13;;
80225;SDS011;69538;42.000;21.452;2023-07-24T00:08:58;22.02;;;12.93;;
80225;SDS011;69538;42.000;21.452;2023-07-24T00:11:24;20.45;;;12.45;;
80225;SDS011;69538;42.000;21.452;2023-07-24T00:13:50;22.23;;;13.55;;
80225;SDS011;69538;42.000;21.452;2023-07-24T00:16:17;25.65;;;14.45;;
80225;SDS011;69538;42.000;21.452;2023-07-24T00:18:43;27.25;;;15.27;;
80225;SDS011;69538;42.000;21.452;2023-07-24T00:21:09;27.35;;;15.05;;
80225;SDS011;69538;42.000;21.452;2023-07-24T00:23:36;30.63;;;15.10;;
80225;SDS011;69538;42.000;21.452;2023-07-24T00:26:02;24.05;;;14.77;;
80225;SDS011;69538;42.000;21.452;2023-07-24T00:28:28;27.42;;;17.23;;
80225;SDS011;69538;42.000;21.452;2023-07-24T00:30:54;26.02;;;16.25;;
80225;SDS011;69538;42.000;21.452;2023-07-24T00:33:21;27.83;;;15.98;;
80225;SDS011;69538;42.000;21.452;2023-07-24T00:35:47;30.20;;;17.15;;
80225;SDS011;69538;42.000;21.452;2023-07-24T00:38:13;29.85;;;16.42;;
80225;SDS011;69538;42.000;21.452;2023-07-24T00:40:40;30.38;;;16.77;;
80225;SDS011;69538;42.000;21.452;2023-07-24T00:43:06;34.25;;;17.60;;
80225;SDS011;69538;42.000;21.452;2023-07-24T00:45:32;25.83;;;16.50;;
80225;SDS011;69538;42.000;21.452;2023-07-24T00:47:59;29.33;;;19.10;;
80225;SDS011;69538;42.000;21.452;2023-07-24T00:50:26;31.83;;;18.33;;
80225;SDS011;69538;42.000;21.452;2023-07-24T00:52:52;32.72;;;18.58;;
80225;SDS011;69538;42.000;21.452;2023-07-24T00:55:19;36.15;;;19.15;;
80225;SDS011;69538;42.000;21.452;2023-07-24T00:57:45;36.72;;;19.55;;
80225;SDS011;69538;42.000;21.452;2023-07-24T01:00:12;35.28;;;19.33;;
80225;SDS011;69538;42.000;21.452;2023-07-24T01:02:38;36.63;;;22.90;;
80225;SDS011;69538;42.000;21.452;2023-07-24T01:05:04;36.78;;;19.70;;
80225;SDS011;69538;42.000;21.452;2023-07-24T01:07:31;35.03;;;21.83;;
80225;SDS011;69538;42.000;21.452;2023-07-24T01:09:57;38.70;;;21.92;;
80225;SDS011;69538;42.000;21.452;2023-07-24T01:12:29;34.50;;;20.58;;
80225;SDS011;69538;42.000;21.452;2023-07-24T01:15:06;38.28;;;22.10;;
80225;SDS011;69538;42.000;21.452;2023-07-24T01:17:34;46.55;;;27.00;;
80225;SDS011;69538;42.000;21.452;2023-07-24T01:20:02;54.92;;;35.85;;
80225;SDS011;69538;42.000;21.452;2023-07-24T01:25:09;45.80;;;27.90;;
80225;SDS011;69538;42.000;21.452;2023-07-24T01:27:40;41.15;;;23.63;;
80225;SDS011;69538;42.000;21.452;2023-07-24T01:30:06;35.72;;;21.60;;
80225;SDS011;69538;42.000;21.452;2023-07-24T01:32:33;34.13;;;20.60;;
80225;SDS011;69538;42.000;21.452;2023-07-24T01:34:59;38.08;;;20.55;;
80225;SDS011;69538;42.000;21.452;2023-07-24T01:37:25;37.53;;;20.88;;
80225;SDS011;69538;42.000;21.452;2023-07-24T01:39:52;32.75;;;18.65;;
80225;SDS011;69538;42.000;21.452;2023-07-24T01:42:19;35.75;;;21.48;;
80225;SDS011;69538;42.000;21.452;2023-07-24T01:44:50;34.38;;;20.88;;
80225;SDS011;69538;42.000;21.452;2023-07-24T01:47:16;35.58;;;20.30;;
80225;SDS011;69538;42.000;21.452;2023-07-24T01:49:43;35.25;;;20.63;;
80225;SDS011;69538;42.000;21.452;2023-07-24T01:52:09;34.70;;;19.70;;
80225;SDS011;69538;42.000;21.452;2023-07-24T01:54:35;36.17;;;19.30;;
80225;SDS011;69538;42.000;21.452;2023-07-24T01:57:01;34.55;;;20.02;;
80225;SDS011;69538;42.000;21.452;2023-07-24T01:59:27;35.08;;;20.85;;
80225;SDS011;69538;42.000;21.452;2023-07-24T02:01:53;34.35;;;18.45;;
80225;SDS011;69538;42.000;21.452;2023-07-24T02:04:19;32.58;;;19.48;;
80225;SDS011;69538;42.000;21.452;2023-07-24T02:06:47;32.65;;;19.27;;
80225;SDS011;69538;42.000;21.452;2023-07-24T02:09:14;29.45;;;19.58;;
80225;SDS011;69538;42.000;21.452;2023-07-24T02:11:41;36.67;;;19.10;;
80225;SDS011;69538;42.000;21.452;2023-07-24T02:14:07;38.05;;;19.13;;
80225;SDS011;69538;42.000;21.452;2023-07-24T02:16:33;28.98;;;18.73;;
80225;SDS011;69538;42.000;21.452;2023-07-24T02:18:59;30.25;;;18.70;;
80225;SDS011;69538;42.000;21.452;2023-07-24T02:21:25;33.38;;;18.65;;
80225;SDS011;69538;42.000;21.452;2023-07-24T02:23:51;31.70;;;18.10;;
80225;SDS011;69538;42.000;21.452;2023-07-24T02:26:18;30.75;;;17.42;;
80225;SDS011;69538;42.000;21.452;2023-07-24T02:28:44;28.92;;;17.55;;
80225;SDS011;69538;42.000;21.452;2023-07-24T02:31:10;25.38;;;16.70;;
80225;SDS011;69538;42.000;21.452;2023-07-24T02:33:36;32.40;;;17.55;;
80225;SDS011;69538;42.000;21.452;2023-07-24T02:36:02;30.35;;;16.95;;
80225;SDS011;69538;42.000;21.452;2023-07-24T02:38:28;29.55;;;17.40;;
80225;SDS011;69538;42.000;21.452;2023-07-24T02:40:54;31.05;;;17.35;;
80225;SDS011;69538;42.000;21.452;2023-07-24T02:43:21;30.67;;;17.27;;
80225;SDS011;69538;42.000;21.452;2023-07-24T02:45:47;30.65;;;17.63;;
80225;SDS011;69538;42.000;21.452;2023-07-24T02:48:13;26.73;;;17.10;;
80225;SDS011;69538;42.000;21.452;2023-07-24T02:50:39;27.67;;;16.88;;
80225;SDS011;69538;42.000;21.452;2023-07-24T02:53:05;32.63;;;18.13;;
80225;SDS011;69538;42.000;21.452;2023-07-24T02:55:31;32.53;;;18.05;;
80225;SDS011;69538;42.000;21.452;2023-07-24T02:57:58;31.75;;;20.02;;
80225;SDS011;69538;42.000;21.452;2023-07-24T03:00:24;52.03;;;32.75;;
80225;SDS011;69538;42.000;21.452;2023-07-24T03:02:50;63.10;;;38.45;;
80225;SDS011;69538;42.000;21.452;2023-07-24T03:05:16;73.30;;;44.55;;
80225;SDS011;69538;42.000;21.452;2023-07-24T03:07:43;70.43;;;46.50;;
80225;SDS011;69538;42.000;21.452;2023-07-24T03:10:09;68.20;;;43.60;;
80225;SDS011;69538;42.000;21.452;2023-07-24T03:12:35;75.63;;;51.20;;
80225;SDS011;69538;42.000;21.452;2023-07-24T03:15:01;74.05;;;43.75;;
80225;SDS011;69538;42.000;21.452;2023-07-24T03:17:27;48.28;;;32.38;;
80225;SDS011;69538;42.000;21.452;2023-07-24T03:19:54;39.97;;;26.55;;
80225;SDS011;69538;42.000;21.452;2023-07-24T03:22:20;35.45;;;20.83;;
80225;SDS011;69538;42.000;21.452;2023-07-24T03:24:46;36.92;;;20.35;;
80225;SDS011;69538;42.000;21.452;2023-07-24T03:27:12;30.75;;;19.60;;
80225;SDS011;69538;42.000;21.452;2023-07-24T03:29:39;33.28;;;19.40;;
80225;SDS011;69538;42.000;21.452;2023-07-24T03:32:06;36.28;;;18.95;;
80225;SDS011;69538;42.000;21.452;2023-07-24T03:34:32;33.78;;;18.23;;
80225;SDS011;69538;42.000;21.452;2023-07-24T03:36:58;29.85;;;17.15;;
80225;SDS011;69538;42.000;21.452;2023-07-24T03:39:25;29.10;;;17.63;;
80225;SDS011;69538;42.000;21.452;2023-07-24T03:41:51;31.60;;;18.30;;
80225;SDS011;69538;42.000;21.452;2023-07-24T03:44:17;29.88;;;17.80;;
80225;SDS011;69538;42.000;21.452;2023-07-24T03:46:43;29.90;;;17.83;;
80225;SDS011;69538;42.000;21.452;2023-07-24T03:49:09;28.77;;;17.20;;
80225;SDS011;69538;42.000;21.452;2023-07-24T03:51:35;28.60;;;16.90;;
80225;SDS011;69538;42.000;21.452;2023-07-24T03:54:02;31.02;;;16.83;;
80225;SDS011;69538;42.000;21.452;2023-07-24T03:56:28;30.45;;;17.13;;
80225;SDS011;69538;42.000;21.452;2023-07-24T03:58:54;30.90;;;18.27;;
80225;SDS011;69538;42.000;21.452;2023-07-24T04:01:20;31.10;;;17.30;;
80225;SDS011;69538;42.000;21.452;2023-07-24T04:03:46;31.20;;;17.83;;
80225;SDS011;69538;42.000;21.452;2023-07-24T04:06:12;27.45;;;17.77;;
80225;SDS011;69538;42.000;21.452;2023-07-24T04:08:39;30.27;;;16.75;;
80225;SDS011;69538;42.000;21.452;2023-07-24T04:11:05;28.00;;;16.45;;
80225;SDS011;69538;42.000;21.452;2023-07-24T04:13:31;31.88;;;18.42;;
80225;SDS011;69538;42.000;21.452;2023-07-24T04:15:57;40.63;;;24.08;;
80225;SDS011;69538;42.000;21.452;2023-07-24T04:18:24;38.55;;;28.27;;
80225;SDS011;69538;42.000;21.452;2023-07-24T04:20:50;48.22;;;36.92;;
80225;SDS011;69538;42.000;21.452;2023-07-24T04:23:16;43.47;;;32.00;;
80225;SDS011;69538;42.000;21.452;2023-07-24T04:25:43;41.40;;;27.27;;
80225;SDS011;69538;42.000;21.452;2023-07-24T04:28:09;43.17;;;26.55;;
80225;SDS011;69538;42.000;21.452;2023-07-24T04:30:35;39.70;;;27.00;;
80225;SDS011;69538;42.000;21.452;2023-07-24T04:33:01;26.52;;;17.98;;
80225;SDS011;69538;42.000;21.452;2023-07-24T04:35:27;22.55;;;14.50;;
80225;SDS011;69538;42.000;21.452;2023-07-24T04:37:53;22.90;;;14.18;;
80225;SDS011;69538;42.000;21.452;2023-07-24T04:40:19;23.27;;;13.02;;
80225;SDS011;69538;42.000;21.452;2023-07-24T04:42:46;33.10;;;14.07;;
80225;SDS011;69538;42.000;21.452;2023-07-24T04:45:12;20.02;;;13.35;;
80225;SDS011;69538;42.000;21.452;2023-07-24T04:47:39;29.27;;;15.35;;
80225;SDS011;69538;42.000;21.452;2023-07-24T04:50:05;24.95;;;14.77;;
80225;SDS011;69538;42.000;21.452;2023-07-24T04:52:31;26.75;;;16.85;;
80225;SDS011;69538;42.000;21.452;2023-07-24T04:54:57;29.63;;;17.70;;
80225;SDS011;69538;42.000;21.452;2023-07-24T04:57:24;31.83;;;18.80;;
80225;SDS011;69538;42.000;21.452;2023-07-24T04:59:50;26.40;;;16.48;;
80225;SDS011;69538;42.000;21.452;2023-07-24T05:02:16;29.27;;;18.10;;
80225;SDS011;69538;42.000;21.452;2023-07-24T05:04:42;30.83;;;17.50;;
80225;SDS011;69538;42.000;21.452;2023-07-24T05:07:08;28.17;;;17.10;;
80225;SDS011;69538;42.000;21.452;2023-07-24T05:09:34;29.58;;;14.95;;
80225;SDS011;69538;42.000;21.452;2023-07-24T05:12:00;25.60;;;12.65;;
80225;SDS011;69538;42.000;21.452;2023-07-24T05:14:27;21.15;;;14.20;;
80225;SDS011;69538;42.000;21.452;2023-07-24T05:16:53;20.90;;;12.60;;
80225;SDS011;69538;42.000;21.452;2023-07-24T05:19:19;26.55;;;13.18;;
80225;SDS011;69538;42.000;21.452;2023-07-24T05:21:45;29.83;;;15.68;;
80225;SDS011;69538;42.000;21.452;2023-07-24T05:24:11;44.15;;;16.45;;
80225;SDS011;69538;42.000;21.452;2023-07-24T05:26:37;30.58;;;15.43;;
80225;SDS011;69538;42.000;21.452;2023-07-24T05:29:03;24.08;;;15.27;;
80225;SDS011;69538;42.000;21.452;2023-07-24T05:31:30;28.17;;;15.05;;
80225;SDS011;69538;42.000;21.452;2023-07-24T05:33:56;35.00;;;15.82;;
80225;SDS011;69538;42.000;21.452;2023-07-24T05:36:22;27.48;;;16.13;;
80225;SDS011;69538;42.000;21.452;2023-07-24T05:38:48;33.55;;;17.88;;
80225;SDS011;69538;42.000;21.452;2023-07-24T05:41:14;36.63;;;19.38;;
80225;SDS011;69538;42.000;21.452;2023-07-24T05:43:40;31.38;;;19.48;;
80225;SDS011;69538;42.000;21.452;2023-07-24T05:46:07;35.97;;;18.60;;
80225;SDS011;69538;42.000;21.452;2023-07-24T05:48:33;35.55;;;17.13;;
80225;SDS011;69538;42.000;21.452;2023-07-24T05:50:59;35.75;;;20.13;;
80225;SDS011;69538;42.000;21.452;2023-07-24T05:53:25;35.15;;;16.92;;
80225;SDS011;69538;42.000;21.452;2023-07-24T05:55:58;34.58;;;16.40;;
80225;SDS011;69538;42.000;21.452;2023-07-24T05:58:25;33.78;;;20.05;;
80225;SDS011;69538;42.000;21.452;2023-07-24T06:00:51;28.08;;;15.60;;
80225;SDS011;69538;42.000;21.452;2023-07-24T06:03:17;30.48;;;14.52;;
80225;SDS011;69538;42.000;21.452;2023-07-24T06:05:44;29.60;;;15.70;;
80225;SDS011;69538;42.000;21.452;2023-07-24T06:08:10;32.28;;;15.80;;
80225;SDS011;69538;42.000;21.452;2023-07-24T06:10:37;35.03;;;17.38;;
80225;SDS011;69538;42.000;21.452;2023-07-24T06:13:03;25.52;;;14.25;;
80225;SDS011;69538;42.000;21.452;2023-07-24T06:15:29;33.45;;;16.45;;
80225;SDS011;69538;42.000;21.452;2023-07-24T06:17:55;30.83;;;17.00;;
80225;SDS011;69538;42.000;21.452;2023-07-24T06:20:21;33.78;;;17.70;;
80225;SDS011;69538;42.000;21.452;2023-07-24T06:22:47;26.65;;;16.20;;
80225;SDS011;69538;42.000;21.452;2023-07-24T06:25:14;29.10;;;16.98;;
80225;SDS011;69538;42.000;21.452;2023-07-24T06:27:41;31.13;;;14.32;;
80225;SDS011;69538;42.000;21.452;2023-07-24T06:30:07;40.88;;;18.70;;
80225;SDS011;69538;42.000;21.452;2023-07-24T06:32:34;36.88;;;18.40;;
80225;SDS011;69538;42.000;21.452;2023-07-24T06:35:00;38.97;;;19.42;;
80225;SDS011;69538;42.000;21.452;2023-07-24T06:37:26;31.60;;;16.13;;
80225;SDS011;69538;42.000;21.452;2023-07-24T06:39:52;41.13;;;17.17;;
80225;SDS011;69538;42.000;21.452;2023-07-24T06:42:18;33.00;;;17.92;;
80225;SDS011;69538;42.000;21.452;2023-07-24T06:44:44;34.42;;;18.42;;
80225;SDS011;69538;42.000;21.452;2023-07-24T06:47:11;39.25;;;21.60;;
80225;SDS011;69538;42.000;21.452;2023-07-24T06:49:37;33.83;;;18.63;;
80225;SDS011;69538;42.000;21.452;2023-07-24T06:52:03;39.85;;;20.00;;
80225;SDS011;69538;42.000;21.452;2023-07-24T06:54:29;34.33;;;19.55;;
80225;SDS011;69538;42.000;21.452;2023-07-24T06:56:55;40.17;;;19.63;;
80225;SDS011;69538;42.000;21.452;2023-07-24T06:59:22;54.30;;;33.00;;
80225;SDS011;69538;42.000;21.452;2023-07-24T07:01:48;54.42;;;34.17;;
80225;SDS011;69538;42.000;21.452;2023-07-24T07:04:16;39.05;;;21.25;;
80225;SDS011;69538;42.000;21.452;2023-07-24T07:06:42;34.28;;;19.48;;
80225;SDS011;69538;42.000;21.452;2023-07-24T07:09:08;44.78;;;22.60;;
80225;SDS011;69538;42.000;21.452;2023-07-24T07:11:35;42.67;;;21.85;;
80225;SDS011;69538;42.000;21.452;2023-07-24T07:14:01;45.90;;;22.40;;
80225;SDS011;69538;42.000;21.452;2023-07-24T07:16:27;40.90;;;19.42;;
80225;SDS011;69538;42.000;21.452;2023-07-24T07:18:53;42.15;;;20.42;;
80225;SDS011;69538;42.000;21.452;2023-07-24T07:21:19;51.15;;;22.73;;
80225;SDS011;69538;42.000;21.452;2023-07-24T07:23:45;44.92;;;22.80;;
80225;SDS011;69538;42.000;21.452;2023-07-24T07:26:42;41.05;;;19.33;;
80225;SDS011;69538;42.000;21.452;2023-07-24T07:29:10;46.30;;;20.90;;
80225;SDS011;69538;42.000;21.452;2023-07-24T07:31:36;37.17;;;18.75;;
80225;SDS011;69538;42.000;21.452;2023-07-24T07:34:02;41.15;;;21.38;;
80225;SDS011;69538;42.000;21.452;2023-07-24T07:36:28;45.35;;;21.00;;
80225;SDS011;69538;42.000;21.452;2023-07-24T07:38:54;31.05;;;15.43;;
80225;SDS011;69538;42.000;21.452;2023-07-24T07:41:21;37.10;;;18.77;;
80225;SDS011;69538;42.000;21.452;2023-07-24T07:43:47;30.95;;;16.08;;
80225;SDS011;69538;42.000;21.452;2023-07-24T07:46:13;34.67;;;16.77;;
80225;SDS011;69538;42.000;21.452;2023-07-24T07:48:39;29.08;;;17.42;;
80225;SDS011;69538;42.000;21.452;2023-07-24T07:51:06;28.00;;;15.07;;
80225;SDS011;69538;42.000;21.452;2023-07-24T07:53:32;31.27;;;16.33;;
80225;SDS011;69538;42.000;21.452;2023-07-24T07:55:58;29.98;;;15.57;;
80225;SDS011;69538;42.000;21.452;2023-07-24T07:58:25;26.80;;;14.60;;
80225;SDS011;69538;42.000;21.452;2023-07-24T08:00:51;24.92;;;12.77;;
80225;SDS011;69538;42.000;21.452;2023-07-24T08:03:17;25.27;;;12.55;;
80225;SDS011;69538;42.000;21.452;2023-07-24T08:05:44;27.05;;;12.45;;
80225;SDS011;69538;42.000;21.452;2023-07-24T08:08:10;29.85;;;14.40;;
80225;SDS011;69538;42.000;21.452;2023-07-24T08:10:39;21.83;;;12.18;;
80225;SDS011;69538;42.000;21.452;2023-07-24T08:13:13;22.48;;;12.73;;
80225;SDS011;69538;42.000;21.452;2023-07-24T08:15:39;18.40;;;10.32;;
80225;SDS011;69538;42.000;21.452;2023-07-24T08:18:06;22.90;;;12.35;;
80225;SDS011;69538;42.000;21.452;2023-07-24T08:20:35;23.70;;;12.38;;
80225;SDS011;69538;42.000;21.452;2023-07-24T08:23:01;21.50;;;11.77;;
80225;SDS011;69538;42.000;21.452;2023-07-24T08:25:27;29.73;;;19.73;;
80225;SDS011;69538;42.000;21.452;2023-07-24T08:27:57;21.23;;;12.48;;
80225;SDS011;69538;42.000;21.452;2023-07-24T08:30:23;23.63;;;10.15;;
80225;SDS011;69538;42.000;21.452;2023-07-24T08:32:49;19.85;;;8.95;;
80225;SDS011;69538;42.000;21.452;2023-07-24T08:35:19;19.27;;;10.40;;
80225;SDS011;69538;42.000;21.452;2023-07-24T08:37:45;15.52;;;7.63;;
80225;SDS011;69538;42.000;21.452;2023-07-24T08:40:11;23.90;;;10.48;;
80225;SDS011;69538;42.000;21.452;2023-07-24T08:42:42;18.35;;;9.60;;
80225;SDS011;69538;42.000;21.452;2023-07-24T08:45:12;18.17;;;10.02;;
80225;SDS011;69538;42.000;21.452;2023-07-24T08:47:40;16.58;;;10.30;;
80225;SDS011;69538;42.000;21.452;2023-07-24T08:50:09;22.15;;;10.57;;
80225;SDS011;69538;42.000;21.452;2023-07-24T08:52:37;16.73;;;9.70;;
80225;SDS011;69538;42.000;21.452;2023-07-24T08:55:04;17.50;;;10.25;;
80225;SDS011;69538;42.000;21.452;2023-07-24T08:57:30;17.13;;;10.88;;
80225;SDS011;69538;42.000;21.452;2023-07-24T08:59:56;20.95;;;10.70;;
80225;SDS011;69538;42.000;21.452;2023-07-24T09:02:23;20.55;;;10.57;;
80225;SDS011;69538;42.000;21.452;2023-07-24T09:04:53;16.35;;;9.73;;
80225;SDS011;69538;42.000;21.452;2023-07-24T09:07:19;16.67;;;10.95;;
80225;SDS011;69538;42.000;21.452;2023-07-24T09:09:46;17.17;;;11.13;;
80225;SDS011;69538;42.000;21.452;2023-07-24T09:12:16;20.48;;;10.35;;
80225;SDS011;69538;42.000;21.452;2023-07-24T09:14:42;18.88;;;11.10;;
80225;SDS011;69538;42.000;21.452;2023-07-24T09:24:28;25.75;;;12.35;;
80225;SDS011;69538;42.000;21.452;2023-07-24T09:26:54;20.33;;;11.23;;
80225;SDS011;69538;42.000;21.452;2023-07-24T09:29:20;20.48;;;9.43;;
80225;SDS011;69538;42.000;21.452;2023-07-24T09:31:47;22.42;;;10.98;;
80225;SDS011;69538;42.000;21.452;2023-07-24T09:34:17;21.48;;;10.82;;
80225;SDS011;69538;42.000;21.452;2023-07-24T09:36:44;23.23;;;11.13;;
80225;SDS011;69538;42.000;21.452;2023-07-24T09:39:10;16.75;;;10.70;;
80225;SDS011;69538;42.000;21.452;2023-07-24T09:41:37;34.17;;;24.58;;
80225;SDS011;69538;42.000;21.452;2023-07-24T09:44:04;17.48;;;10.80;;
80225;SDS011;69538;42.000;21.452;2023-07-24T09:46:30;17.55;;;10.63;;
80225;SDS011;69538;42.000;21.452;2023-07-24T09:48:57;20.30;;;10.52;;
80225;SDS011;69538;42.000;21.452;2023-07-24T09:51:23;17.80;;;11.10;;
80225;SDS011;69538;42.000;21.452;2023-07-24T09:53:55;15.20;;;11.20;;
80225;SDS011;69538;42.000;21.452;2023-07-24T09:56:21;17.15;;;9.98;;
80225;SDS011;69538;42.000;21.452;2023-07-24T09:58:48;16.17;;;8.32;;
80225;SDS011;69538;42.000;21.452;2023-07-24T10:01:19;19.67;;;11.25;;
80225;SDS011;69538;42.000;21.452;2023-07-24T10:03:49;15.15;;;10.35;;
80225;SDS011;69538;42.000;21.452;2023-07-24T10:06:16;16.95;;;10.63;;
80225;SDS011;69538;42.000;21.452;2023-07-24T10:08:43;15.40;;;9.48;;
80225;SDS011;69538;42.000;21.452;2023-07-24T10:11:13;16.00;;;9.82;;
80225;SDS011;69538;42.000;21.452;2023-07-24T10:13:40;17.77;;;10.27;;
80225;SDS011;69538;42.000;21.452;2023-07-24T10:16:06;14.90;;;9.65;;
80225;SDS011;69538;42.000;21.452;2023-07-24T10:18:33;15.50;;;10.48;;
80225;SDS011;69538;42.000;21.452;2023-07-24T10:21:00;14.20;;;9.60;;
80225;SDS011;69538;42.000;21.452;2023-07-24T10:23:27;21.80;;;10.48;;
80225;SDS011;69538;42.000;21.452;2023-07-24T10:25:54;14.43;;;9.35;;
80225;SDS011;69538;42.000;21.452;2023-07-24T10:28:29;16.30;;;9.57;;
80225;SDS011;69538;42.000;21.452;2023-07-24T10:30:55;15.75;;;11.63;;
80225;SDS011;69538;42.000;21.452;2023-07-24T10:33:22;20.10;;;13.38;;
80225;SDS011;69538;42.000;21.452;2023-07-24T10:36:02;14.02;;;8.93;;
80225;SDS011;69538;42.000;21.452;2023-07-24T10:38:36;16.15;;;10.23;;
80225;SDS011;69538;42.000;21.452;2023-07-24T10:41:03;19.48;;;9.50;;
80225;SDS011;69538;42.000;21.452;2023-07-24T10:43:39;14.20;;;9.10;;
80225;SDS011;69538;42.000;21.452;2023-07-24T10:46:05;18.20;;;10.00;;
80225;SDS011;69538;42.000;21.452;2023-07-24T10:48:31;15.20;;;8.98;;
80225;SDS011;69538;42.000;21.452;2023-07-24T10:50:58;12.82;;;9.25;;
80225;SDS011;69538;42.000;21.452;2023-07-24T10:53:24;16.40;;;9.98;;
80225;SDS011;69538;42.000;21.452;2023-07-24T10:58:17;17.00;;;9.80;;
80225;SDS011;69538;42.000;21.452;2023-07-24T11:00:44;14.88;;;10.05;;
80225;SDS011;69538;42.000;21.452;2023-07-24T11:03:11;13.25;;;7.05;;
80225;SDS011;69538;42.000;21.452;2023-07-24T11:05:40;13.95;;;9.48;;
80225;SDS011;69538;42.000;21.452;2023-07-24T11:08:16;15.88;;;9.20;;
80225;SDS011;69538;42.000;21.452;2023-07-24T11:10:46;17.75;;;9.02;;
80225;SDS011;69538;42.000;21.452;2023-07-24T11:13:13;21.88;;;10.25;;
80225;SDS011;69538;42.000;21.452;2023-07-24T11:15:39;15.95;;;9.23;;
80225;SDS011;69538;42.000;21.452;2023-07-24T11:18:05;13.10;;;8.68;;
80225;SDS011;69538;42.000;21.452;2023-07-24T11:22:59;16.83;;;9.70;;
80225;SDS011;69538;42.000;21.452;2023-07-24T11:25:25;15.88;;;9.38;;
80225;SDS011;69538;42.000;21.452;2023-07-24T11:27:53;16.33;;;9.13;;
80225;SDS011;69538;42.000;21.452;2023-07-24T11:30:20;14.60;;;8.55;;
80225;SDS011;69538;42.000;21.452;2023-07-24T11:32:46;12.27;;;8.68;;
80225;SDS011;69538;42.000;21.452;2023-07-24T11:35:13;14.70;;;7.72;;
80225;SDS011;69538;42.000;21.452;2023-07-24T11:37:40;15.82;;;7.70;;
80225;SDS011;69538;42.000;21.452;2023-07-24T11:40:06;15.63;;;8.15;;
80225;SDS011;69538;42.000;21.452;2023-07-24T11:42:39;11.27;;;8.13;;
80225;SDS011;69538;42.000;21.452;2023-07-24T11:45:07;14.27;;;8.70;;
80225;SDS011;69538;42.000;21.452;2023-07-24T11:47:43;13.95;;;8.35;;
80225;SDS011;69538;42.000;21.452;2023-07-24T11:50:09;13.95;;;7.60;;
80225;SDS011;69538;42.000;21.452;2023-07-24T11:52:49;17.58;;;8.88;;
80225;SDS011;69538;42.000;21.452;2023-07-24T11:55:16;15.10;;;8.05;;
80225;SDS011;69538;42.000;21.452;2023-07-24T11:57:43;16.08;;;8.27;;
80225;SDS011;69538;42.000;21.452;2023-07-24T12:00:19;15.38;;;8.13;;
80225;SDS011;69538;42.000;21.452;2023-07-24T12:02:45;15.85;;;8.48;;
80225;SDS011;69538;42.000;21.452;2023-07-24T12:05:11;12.55;;;7.43;;
80225;SDS011;69538;42.000;21.452;2023-07-24T12:07:38;16.08;;;8.73;;
80225;SDS011;69538;42.000;21.452;2023-07-24T12:10:04;16.67;;;8.10;;
80225;SDS011;69538;42.000;21.452;2023-07-24T12:12:38;16.88;;;9.23;;
80225;SDS011;69538;42.000;21.452;2023-07-24T12:15:04;14.95;;;8.20;;
80225;SDS011;69538;42.000;21.452;2023-07-24T12:17:30;12.52;;;7.82;;
80225;SDS011;69538;42.000;21.452;2023-07-24T12:19:56;16.63;;;9.20;;
80225;SDS011;69538;42.000;21.452;2023-07-24T12:22:23;13.70;;;7.65;;
80225;SDS011;69538;42.000;21.452;2023-07-24T12:24:49;13.25;;;7.63;;
80225;SDS011;69538;42.000;21.452;2023-07-24T12:27:15;16.00;;;7.72;;
80225;SDS011;69538;42.000;21.452;2023-07-24T12:29:41;13.98;;;7.68;;
80225;SDS011;69538;42.000;21.452;2023-07-24T12:32:07;11.18;;;7.38;;
80225;SDS011;69538;42.000;21.452;2023-07-24T12:34:33;15.25;;;8.00;;
80225;SDS011;69538;42.000;21.452;2023-07-24T12:37:00;11.98;;;7.63;;
80225;SDS011;69538;42.000;21.452;2023-07-24T12:39:26;12.07;;;7.50;;
80225;SDS011;69538;42.000;21.452;2023-07-24T12:41:52;15.38;;;7.00;;
80225;SDS011;69538;42.000;21.452;2023-07-24T12:44:18;13.23;;;7.80;;
80225;SDS011;69538;42.000;21.452;2023-07-24T12:46:44;12.35;;;7.32;;
80225;SDS011;69538;42.000;21.452;2023-07-24T12:49:10;12.15;;;8.13;;
80225;SDS011;69538;42.000;21.452;2023-07-24T12:51:37;11.77;;;6.47;;
80225;SDS011;69538;42.000;21.452;2023-07-24T12:54:03;17.02;;;10.52;;
80225;SDS011;69538;42.000;21.452;2023-07-24T12:56:29;10.45;;;6.40;;
80225;SDS011;69538;42.000;21.452;2023-07-24T12:58:55;15.40;;;7.97;;
80225;SDS011;69538;42.000;21.452;2023-07-24T13:01:21;10.27;;;6.72;;
80225;SDS011;69538;42.000;21.452;2023-07-24T13:06:15;18.65;;;12.30;;
80225;SDS011;69538;42.000;21.452;2023-07-24T13:08:41;15.57;;;7.70;;
80225;SDS011;69538;42.000;21.452;2023-07-24T13:11:07;14.10;;;7.68;;
80225;SDS011;69538;42.000;21.452;2023-07-24T13:13:33;15.13;;;11.00;;
80225;SDS011;69538;42.000;21.452;2023-07-24T13:16:01;11.20;;;7.25;;
80225;SDS011;69538;42.000;21.452;2023-07-24T13:18:28;11.80;;;6.80;;
80225;SDS011;69538;42.000;21.452;2023-07-24T13:20:54;16.50;;;12.10;;
80225;SDS011;69538;42.000;21.452;2023-07-24T13:23:20;15.10;;;8.00;;
80225;SDS011;69538;42.000;21.452;2023-07-24T13:25:46;17.90;;;11.45;;
80225;SDS011;69538;42.000;21.452;2023-07-24T13:28:13;14.63;;;8.25;;
80225;SDS011;69538;42.000;21.452;2023-07-24T13:30:39;16.23;;;7.88;;
80225;SDS011;69538;42.000;21.452;2023-07-24T13:33:05;13.38;;;7.60;;
80225;SDS011;69538;42.000;21.452;2023-07-24T13:35:31;10.38;;;7.72;;
80225;SDS011;69538;42.000;21.452;2023-07-24T13:37:57;14.63;;;11.07;;
80225;SDS011;69538;42.000;21.452;2023-07-24T13:40:23;13.02;;;6.95;;
80225;SDS011;69538;42.000;21.452;2023-07-24T13:42:50;13.05;;;7.47;;
80225;SDS011;69538;42.000;21.452;2023-07-24T13:45:16;14.98;;;7.90;;
80225;SDS011;69538;42.000;21.452;2023-07-24T13:47:42;12.88;;;7.63;;
80225;SDS011;69538;42.000;21.452;2023-07-24T13:50:08;12.32;;;8.68;;
80225;SDS011;69538;42.000;21.452;2023-07-24T13:52:34;11.98;;;6.82;;
80225;SDS011;69538;42.000;21.452;2023-07-24T13:55:00;17.48;;;7.55;;
80225;SDS011;69538;42.000;21.452;2023-07-24T13:57:27;12.35;;;7.18;;
80225;SDS011;69538;42.000;21.452;2023-07-24T13:59:53;11.80;;;7.53;;
80225;SDS011;69538;42.000;21.452;2023-07-24T14:02:19;12.85;;;8.70;;
80225;SDS011;69538;42.000;21.452;2023-07-24T14:04:45;12.82;;;7.57;;
80225;SDS011;69538;42.000;21.452;2023-07-24T14:07:11;14.10;;;7.35;;
80225;SDS011;69538;42.000;21.452;2023-07-24T14:09:38;16.10;;;7.88;;
80225;SDS011;69538;42.000;21.452;2023-07-24T14:12:05;17.75;;;7.82;;
80225;SDS011;69538;42.000;21.452;2023-07-24T14:14:31;12.23;;;7.95;;
80225;SDS011;69538;42.000;21.452;2023-07-24T14:16:57;14.95;;;8.25;;
80225;SDS011;69538;42.000;21.452;2023-07-24T14:19:23;12.73;;;6.82;;
80225;SDS011;69538;42.000;21.452;2023-07-24T14:21:50;13.82;;;7.65;;
80225;SDS011;69538;42.000;21.452;2023-07-24T14:24:16;12.88;;;7.15;;
80225;SDS011;69538;42.000;21.452;2023-07-24T14:26:42;12.40;;;6.68;;
80225;SDS011;69538;42.000;21.452;2023-07-24T14:31:36;13.13;;;7.43;;